| time (UTC) | temp C | wind direction | speed KPH | gust KPH | rain 1hr cm | rain 24hr cm | rain mn cm | humidity % | barometer mb |
| 20260905081517 | 20 | 228 | 3.2 | 8.0 | 0.00 | 0.05 | 0.05 | 71 | 1022.5 |
| 20260905080537 | 20 | 183 | 1.6 | 9.7 | 0.00 | 0.05 | 0.05 | 73 | 1022.4 |
| 20260905075517 | 19 | 224 | 4.8 | 22.5 | 0.00 | 0.05 | 0.05 | 75 | 1022.4 |
| 20260905074516 | 19 | 238 | 3.2 | 8.0 | 0.00 | 0.05 | 0.05 | 77 | 1022.2 |
| 20260905073517 | 19 | 241 | 4.8 | 16.1 | 0.00 | 0.05 | 0.05 | 77 | 1022.1 |
| 20260905072517 | 19 | 264 | 3.2 | 14.5 | 0.00 | 0.05 | 0.05 | 79 | 1022.0 |
| 20260905071517 | 18 | 218 | 4.8 | 16.1 | 0.00 | 0.05 | 0.05 | 81 | 1021.9 |
| 20260905070517 | 18 | 217 | 1.6 | 8.0 | 0.00 | 0.05 | 0.05 | 83 | 1021.8 |
| 20260905065537 | 18 | 227 | 1.6 | 6.4 | 0.00 | 0.05 | 0.05 | 84 | 1021.7 |
| 20260905064517 | 18 | 194 | 3.2 | 11.3 | 0.00 | 0.05 | 0.05 | 84 | 1021.7 |
| 20260905063537 | 18 | 218 | 3.2 | 8.0 | 0.00 | 0.05 | 0.05 | 84 | 1021.5 |
| 20260905062537 | 18 | 176 | 1.6 | 8.0 | 0.00 | 0.05 | 0.05 | 86 | 1021.4 |
| 20260905061557 | 17 | 287 | 0.0 | 3.2 | 0.00 | 0.05 | 0.05 | 87 | 1021.4 |
| 20260905060517 | 17 | 177 | 0.0 | 3.2 | 0.00 | 0.05 | 0.05 | 86 | 1021.3 |
| 20260905055517 | 17 | 173 | 0.0 | 8.0 | 0.00 | 0.05 | 0.05 | 87 | 1021.2 |
| 20260905054517 | 17 | 242 | 3.2 | 16.1 | 0.00 | 0.05 | 0.05 | 88 | 1021.0 |
| 20260905053515 | 17 | 213 | 4.8 | 9.7 | 0.00 | 0.05 | 0.05 | 90 | 1020.9 |
| 20260905052514 | 16 | 233 | 0.0 | 6.4 | 0.00 | 0.05 | 0.05 | 89 | 1020.9 |
| 20260905051514 | 16 | 156 | 1.6 | 6.4 | 0.00 | 0.05 | 0.05 | 89 | 1020.6 |
| 20260905050514 | 16 | 225 | 1.6 | 6.4 | 0.00 | 0.05 | 0.05 | 89 | 1020.5 |
| 20260905045515 | 16 | 210 | 1.6 | 8.0 | 0.00 | 0.05 | 0.05 | 89 | 1020.5 |
| 20260905044515 | 16 | 177 | 1.6 | 3.2 | 0.00 | 0.05 | 0.05 | 88 | 1020.4 |
| 20260905043515 | 16 | 172 | 1.6 | 6.4 | 0.00 | 0.05 | 0.05 | 88 | 1020.1 |
| 20260905042515 | 16 | 155 | 0.0 | 1.6 | 0.00 | 0.05 | 0.05 | 87 | 1020.1 |
| 20260905041515 | 16 | 172 | 1.6 | 4.8 | 0.00 | 0.05 | 0.05 | 87 | 1020.0 |
| 20260905040535 | 16 | 204 | 0.0 | 3.2 | 0.00 | 0.05 | 0.05 | 86 | 1019.9 |
| 20260905035515 | 16 | 219 | 1.6 | 3.2 | 0.00 | 0.05 | 0.05 | 85 | 1019.9 |
| 20260905034514 | 16 | 254 | 1.6 | 6.4 | 0.00 | 0.05 | 0.05 | 84 | 1019.8 |
| 20260905033515 | 16 | 233 | 1.6 | 4.8 | 0.00 | 0.05 | 0.05 | 84 | 1019.5 |
| 20260905032515 | 16 | 198 | 1.6 | 4.8 | 0.00 | 0.05 | 0.05 | 83 | 1019.3 |
| 20260905031515 | 16 | 201 | 1.6 | 6.4 | 0.00 | 0.05 | 0.05 | 82 | 1019.4 |
| 20260905030515 | 16 | 198 | 1.6 | 6.4 | 0.00 | 0.05 | 0.05 | 82 | 1019.4 |
| 20260905025515 | 16 | 212 | 1.6 | 4.8 | 0.00 | 0.05 | 0.05 | 81 | 1019.4 |
| 20260905024515 | 16 | 238 | 1.6 | 3.2 | 0.00 | 0.05 | 0.05 | 82 | 1019.4 |
| 20260905023515 | 16 | 228 | 1.6 | 4.8 | 0.00 | 0.05 | 0.05 | 82 | 1019.3 |
| 20260905022515 | 16 | 221 | 1.6 | 4.8 | 0.03 | 0.05 | 0.05 | 81 | 1019.1 |
| 20260905021517 | 17 | 229 | 0.0 | 3.2 | 0.05 | 0.05 | 0.05 | 80 | 1019.3 |
| 20260905020517 | 17 | 212 | 0.0 | 1.6 | 0.05 | 0.05 | 0.05 | 79 | 1019.4 |
| 20260905015517 | 17 | 144 | 0.0 | 1.6 | 0.05 | 0.05 | 0.05 | 76 | 1019.4 |
| 20260905014517 | 18 | 250 | 0.0 | 3.2 | 0.05 | 0.05 | 0.05 | 74 | 1019.3 |
| 20260905013537 | 18 | 243 | 1.6 | 3.2 | 0.05 | 0.05 | 0.05 | 71 | 1019.2 |
| 20260905012517 | 19 | 214 | 3.2 | 12.9 | 0.03 | 0.03 | 0.03 | 63 | 1018.9 |
| 20260905011517 | 20 | 223 | 4.8 | 19.3 | 0.00 | 0.00 | 0.00 | 56 | 1018.8 |
| 20260905010517 | 21 | 216 | 8.0 | 25.7 | 0.00 | 0.00 | 0.00 | 68 | 1018.8 |
| 20260905005517 | 21 | 232 | 3.2 | 17.7 | 0.00 | 0.00 | 0.00 | 68 | 1018.8 |
| 20260905004517 | 22 | 339 | 4.8 | 17.7 | 0.00 | 0.00 | 0.00 | 67 | 1018.6 |
| 20260905003517 | 22 | 291 | 4.8 | 20.9 | 0.00 | 0.00 | 0.00 | 67 | 1018.4 |
| 20260905002517 | 22 | 252 | 6.4 | 16.1 | 0.00 | 0.00 | 0.00 | 68 | 1018.2 |
| 20260905001517 | 22 | 251 | 3.2 | 16.1 | 0.00 | 0.00 | 0.00 | 68 | 1018.1 |
| 20260905000517 | 22 | 225 | 1.6 | 8.0 | 0.00 | 0.00 | 0.00 | 69 | 1018.0 |
| 20260904235517 | 22 | 264 | 1.6 | 9.7 | 0.00 | 0.00 | 0.00 | 68 | 1017.8 |
| 20260904234517 | 23 | 228 | 3.2 | 11.3 | 0.00 | 0.00 | 0.00 | 65 | 1017.7 |
| 20260904233637 | 23 | 323 | 3.2 | 12.9 | 0.00 | 0.00 | 0.00 | 65 | 1017.6 |
| 20260904232517 | 23 | 319 | 3.2 | 6.4 | 0.00 | 0.00 | 0.00 | 65 | 1017.3 |
| 20260904231517 | 23 | 352 | 1.6 | 16.1 | 0.00 | 0.00 | 0.00 | 65 | 1017.2 |
| 20260904230537 | 23 | 234 | 3.2 | 14.5 | 0.00 | 0.00 | 0.00 | 65 | 1017.0 |
| 20260904225517 | 23 | 206 | 4.8 | 19.3 | 0.00 | 0.00 | 0.00 | 65 | 1016.9 |
| 20260904224517 | 23 | 216 | 3.2 | 9.7 | 0.00 | 0.00 | 0.00 | 64 | 1016.7 |
| 20260904223517 | 23 | 222 | 4.8 | 14.5 | 0.00 | 0.00 | 0.00 | 64 | 1016.6 |
| 20260904222517 | 23 | 255 | 3.2 | 14.5 | 0.00 | 0.00 | 0.00 | 63 | 1016.4 |
| 20260904221517 | 23 | 257 | 3.2 | 11.3 | 0.00 | 0.00 | 0.00 | 63 | 1016.4 |
| 20260904220517 | 23 | 272 | 3.2 | 9.7 | 0.00 | 0.00 | 0.00 | 62 | 1016.5 |
| 20260904215537 | 24 | 242 | 4.8 | 17.7 | 0.00 | 0.00 | 0.00 | 61 | 1016.4 |
| 20260904214517 | 24 | 242 | 6.4 | 20.9 | 0.00 | 0.00 | 0.00 | 61 | 1016.4 |
| 20260904213517 | 24 | 231 | 6.4 | 20.9 | 0.00 | 0.00 | 0.00 | 62 | 1016.3 |
| 20260904212517 | 24 | 220 | 4.8 | 12.9 | 0.00 | 0.00 | 0.00 | 62 | 1016.2 |
| 20260904211517 | 25 | 226 | 4.8 | 11.3 | 0.00 | 0.00 | 0.00 | 61 | 1016.1 |
| 20260904210517 | 25 | 218 | 3.2 | 20.9 | 0.00 | 0.00 | 0.00 | 60 | 1016.0 |
| 20260904205517 | 25 | 222 | 4.8 | 11.3 | 0.00 | 0.00 | 0.00 | 58 | 1016.0 |
| 20260904204557 | 25 | 227 | 4.8 | 14.5 | 0.00 | 0.00 | 0.00 | 56 | 1015.8 |
| 20260904203517 | 26 | 252 | 1.6 | 6.4 | 0.00 | 0.00 | 0.00 | 55 | 1015.7 |
| 20260904202517 | 26 | 235 | 3.2 | 8.0 | 0.00 | 0.00 | 0.00 | 54 | 1015.5 |
| 20260904201557 | 26 | 234 | 3.2 | 8.0 | 0.00 | 0.00 | 0.00 | 53 | 1015.4 |
| 20260904200517 | 26 | 229 | 3.2 | 12.9 | 0.00 | 0.00 | 0.00 | 52 | 1015.3 |
| 20260904195517 | 26 | 225 | 3.2 | 11.3 | 0.00 | 0.00 | 0.00 | 52 | 1015.2 |
| 20260904194537 | 26 | 210 | 4.8 | 14.5 | 0.00 | 0.00 | 0.00 | 52 | 1015.1 |
| 20260904193517 | 26 | 213 | 4.8 | 14.5 | 0.00 | 0.00 | 0.00 | 52 | 1015.0 |
| 20260904192517 | 26 | 219 | 4.8 | 12.9 | 0.00 | 0.00 | 0.00 | 52 | 1015.0 |
| 20260904191537 | 26 | 223 | 4.8 | 11.3 | 0.00 | 0.00 | 0.00 | 52 | 1014.8 |
| 20260904190517 | 26 | 217 | 3.2 | 11.3 | 0.00 | 0.00 | 0.00 | 52 | 1014.7 |
| 20260904185517 | 27 | 218 | 3.2 | 8.0 | 0.00 | 0.00 | 0.00 | 52 | 1014.6 |
| 20260904184517 | 27 | 209 | 1.6 | 12.9 | 0.00 | 0.00 | 0.00 | 51 | 1014.6 |
| 20260904183517 | 27 | 223 | 4.8 | 16.1 | 0.00 | 0.00 | 0.00 | 51 | 1014.5 |
| 20260904182517 | 27 | 228 | 3.2 | 12.9 | 0.00 | 0.00 | 0.00 | 51 | 1014.4 |
| 20260904181517 | 27 | 225 | 3.2 | 11.3 | 0.00 | 0.00 | 0.00 | 51 | 1014.3 |
| 20260904180537 | 27 | 226 | 3.2 | 9.7 | 0.00 | 0.00 | 0.00 | 50 | 1014.3 |
| 20260904175517 | 28 | 212 | 3.2 | 12.9 | 0.00 | 0.00 | 0.00 | 49 | 1014.2 |
| 20260904174517 | 28 | 222 | 3.2 | 8.0 | 0.00 | 0.00 | 0.00 | 49 | 1014.2 |
| 20260904173517 | 28 | 223 | 6.4 | 16.1 | 0.00 | 0.00 | 0.00 | 48 | 1014.2 |
| 20260904172517 | 28 | 225 | 4.8 | 16.1 | 0.00 | 0.00 | 0.00 | 47 | 1014.2 |
| 20260904171517 | 28 | 215 | 4.8 | 12.9 | 0.00 | 0.00 | 0.00 | 46 | 1014.2 |
| 20260904170517 | 29 | 226 | 6.4 | 27.4 | 0.00 | 0.00 | 0.00 | 45 | 1014.2 |
| 20260904165517 | 29 | 229 | 9.7 | 25.7 | 0.00 | 0.00 | 0.00 | 44 | 1014.3 |
| 20260904164557 | 30 | 224 | 6.4 | 14.5 | 0.00 | 0.00 | 0.00 | 43 | 1014.1 |
| 20260904163517 | 30 | 220 | 8.0 | 24.1 | 0.00 | 0.00 | 0.00 | 43 | 1014.1 |
| 20260904162517 | 30 | 215 | 4.8 | 17.7 | 0.00 | 0.00 | 0.00 | 43 | 1014.1 |
| 20260904161516 | 30 | 221 | 8.0 | 17.7 | 0.00 | 0.00 | 0.00 | 42 | 1014.1 |
| 20260904160537 | 30 | 227 | 6.4 | 16.1 | 0.00 | 0.00 | 0.00 | 42 | 1014.1 |
| 20260904155617 | 30 | 220 | 8.0 | 19.3 | 0.00 | 0.00 | 0.00 | 42 | 1014.1 |
| 20260904154517 | 31 | 225 | 6.4 | 16.1 | 0.00 | 0.00 | 0.00 | 41 | 1014.1 |
| 20260904153516 | 30 | 222 | 4.8 | 20.9 | 0.00 | 0.00 | 0.00 | 42 | 1014.1 |
| 20260904152517 | 30 | 219 | 9.7 | 22.5 | 0.00 | 0.00 | 0.00 | 41 | 1014.1 |
| 20260904151517 | 31 | 222 | 11.3 | 19.3 | 0.00 | 0.00 | 0.00 | 41 | 1014.0 |
| 20260904150517 | 31 | 230 | 11.3 | 24.1 | 0.00 | 0.00 | 0.00 | 42 | 1014.0 |
| 20260904145517 | 31 | 225 | 12.9 | 33.8 | 0.00 | 0.00 | 0.00 | 42 | 1014.0 |
| 20260904144517 | 31 | 216 | 9.7 | 24.1 | 0.00 | 0.00 | 0.00 | 43 | 1014.0 |
| 20260904143517 | 31 | 219 | 11.3 | 27.4 | 0.00 | 0.00 | 0.00 | 42 | 1014.1 |
| 20260904142517 | 31 | 215 | 9.7 | 24.1 | 0.00 | 0.00 | 0.00 | 42 | 1014.1 |
| 20260904141517 | 31 | 228 | 12.9 | 25.7 | 0.00 | 0.00 | 0.00 | 42 | 1014.2 |
| 20260904140557 | 30 | 231 | 8.0 | 20.9 | 0.00 | 0.00 | 0.00 | 43 | 1014.2 |
| 20260904135537 | 30 | 219 | 8.0 | 19.3 | 0.00 | 0.00 | 0.00 | 43 | 1014.3 |
| 20260904134517 | 30 | 233 | 11.3 | 25.7 | 0.00 | 0.00 | 0.00 | 42 | 1014.4 |
| 20260904133517 | 30 | 227 | 9.7 | 25.7 | 0.00 | 0.00 | 0.00 | 43 | 1014.5 |
| 20260904132517 | 30 | 218 | 11.3 | 25.7 | 0.00 | 0.00 | 0.00 | 42 | 1014.7 |
| 20260904131517 | 30 | 209 | 9.7 | 24.1 | 0.00 | 0.00 | 0.00 | 45 | 1014.7 |
| 20260904130517 | 30 | 222 | 9.7 | 33.8 | 0.00 | 0.00 | 0.00 | 44 | 1014.8 |
| 20260904125517 | 30 | 227 | 8.0 | 20.9 | 0.00 | 0.00 | 0.00 | 45 | 1014.9 |
| 20260904124517 | 30 | 223 | 8.0 | 20.9 | 0.00 | 0.00 | 0.00 | 46 | 1015.0 |
| 20260904123517 | 30 | 224 | 8.0 | 22.5 | 0.00 | 0.00 | 0.00 | 46 | 1015.1 |
| 20260904122537 | 30 | 226 | 11.3 | 24.1 | 0.00 | 0.00 | 0.00 | 46 | 1015.2 |
| 20260904121516 | 29 | 219 | 9.7 | 22.5 | 0.00 | 0.00 | 0.00 | 47 | 1015.3 |
| 20260904120517 | 29 | 224 | 11.3 | 24.1 | 0.00 | 0.00 | 0.00 | 47 | 1015.5 |
| 20260904115517 | 29 | 220 | 9.7 | 27.4 | 0.00 | 0.00 | 0.00 | 47 | 1015.6 |
| 20260904114517 | 28 | 207 | 9.7 | 22.5 | 0.00 | 0.00 | 0.00 | 48 | 1015.8 |
| 20260904113517 | 28 | 219 | 11.3 | 22.5 | 0.00 | 0.00 | 0.00 | 50 | 1015.9 |
| 20260904112517 | 28 | 225 | 12.9 | 27.4 | 0.00 | 0.00 | 0.00 | 49 | 1016.1 |
| 20260904111517 | 28 | 204 | 9.7 | 25.7 | 0.00 | 0.00 | 0.00 | 50 | 1016.1 |
| 20260904110517 | 28 | 219 | 8.0 | 17.7 | 0.00 | 0.00 | 0.00 | 51 | 1016.2 |
| 20260904105517 | 28 | 216 | 11.3 | 24.1 | 0.00 | 0.00 | 0.00 | 51 | 1016.3 |
| 20260904104537 | 28 | 225 | 8.0 | 19.3 | 0.00 | 0.00 | 0.00 | 52 | 1016.5 |
| 20260904103517 | 28 | 211 | 9.7 | 19.3 | 0.00 | 0.00 | 0.00 | 52 | 1016.6 |
| 20260904102537 | 27 | 226 | 8.0 | 17.7 | 0.00 | 0.00 | 0.00 | 53 | 1016.7 |
| 20260904101517 | 27 | 201 | 6.4 | 17.7 | 0.00 | 0.00 | 0.00 | 55 | 1016.9 |
| 20260904100517 | 27 | 219 | 9.7 | 22.5 | 0.00 | 0.00 | 0.00 | 55 | 1017.0 |
| 20260904095517 | 27 | 211 | 8.0 | 19.3 | 0.00 | 0.00 | 0.00 | 58 | 1017.1 |
| 20260904094517 | 26 | 214 | 4.8 | 25.7 | 0.00 | 0.00 | 0.00 | 59 | 1017.3 |
| 20260904093517 | 26 | 185 | 6.4 | 17.7 | 0.00 | 0.00 | 0.00 | 61 | 1017.5 |
| 20260904092537 | 26 | 210 | 9.7 | 25.7 | 0.00 | 0.00 | 0.00 | 60 | 1017.7 |
| 20260904091516 | 26 | 202 | 4.8 | 16.1 | 0.00 | 0.00 | 0.00 | 61 | 1017.9 |
| 20260904090517 | 25 | 176 | 6.4 | 17.7 | 0.00 | 0.00 | 0.00 | 62 | 1018.0 |
| 20260904085517 | 25 | 188 | 6.4 | 17.7 | 0.00 | 0.00 | 0.00 | 63 | 1018.1 |
| 20260904084517 | 25 | 179 | 4.8 | 14.5 | 0.00 | 0.00 | 0.00 | 64 | 1018.2 |
| 20260904083517 | 24 | 157 | 4.8 | 14.5 | 0.00 | 0.00 | 0.00 | 66 | 1018.2 |
| 20260904082537 | 23 | 160 | 4.8 | 14.5 | 0.00 | 0.00 | 0.00 | 67 | 1018.2 |